Hlavní strana
METAR-TAF:

METAR-TAF

Letiště :

Treviso, Itálie

zeměpisná šířka: 45-41N, zeměpisná délka: 012-06E, výška: 45 m

Aktuální stav počasí

Zpráva byla vytvořena před 1 hodinou a 19 minutami, v 13:55 UTC
Východojihovýchodní vítr 7 kt
Teplota 14°C
Vlhkost vzduchu 47%
Tlak 1022 hPa
Viditelnost 10 km a více
Skoro jasno ve výšce 2500 ft
Polojasno ve výšce 8000 ft

METAR: LIPS 191355Z 12007KT 9999 FEW025 SCT080 14/03 Q1022 RMK BKN VIS MIN 9999 WIND THR26 06007KT WIND THR08 10007KT BLU

Čas: 16:14 (15:14 UTC)

Předpověď počasí

Zpráva byla vytvořena před 1 hodinou a 14 minutami, v 14:00 UTC
Předpověď platná od 19 v 15 UTC do 19 v 24 UTC
Východní vítr 8 kt
Viditelnost 10 km a více
Polojasno ve výšce 8000 ft

TAF: LIPS 191400Z 1915/1924 08008KT 9999 SCT080

Stav a předpovědi počasí z více než 4 000 letišť (zprávy METAR a TAF).

Červené a žluté tečky na mapě představují dostupné meteorologické stanice.

Když kurzor umístíte na tečku, zobrazí se název stanice.

Pak kliknutím zobrazíte stav a předpověď počasí.

Chcete-li změnit mapu, kliknutím na zelené tlačítko se znaménkem +mapu přiblížíte, kliknutím na zelené tlačítko se znaménkem – mapu oddálíte a kliknutím na zelené šipky přejdete na sousední mapy.


METAR-TAF: